sensor_id;sensor_type;location;lat;lon;timestamp;pressure;altitude;pressure_sealevel;temperature;humidity
56330;BME280;42236;48.058;10.632;2023-02-18T00:01:52;95647.22;;;10.07;81.02
56330;BME280;42236;48.058;10.632;2023-02-18T00:04:37;95653.72;;;10.06;80.89
56330;BME280;42236;48.058;10.632;2023-02-18T00:07:23;95651.66;;;10.03;81.40
56330;BME280;42236;48.058;10.632;2023-02-18T00:10:12;95645.28;;;9.99;81.62
56330;BME280;42236;48.058;10.632;2023-02-18T00:12:57;95647.50;;;9.97;82.07
56330;BME280;42236;48.058;10.632;2023-02-18T00:15:44;95640.81;;;9.94;82.28
56330;BME280;42236;48.058;10.632;2023-02-18T00:18:30;95628.75;;;9.92;83.12
56330;BME280;42236;48.058;10.632;2023-02-18T00:21:15;95631.94;;;9.94;83.11
56330;BME280;42236;48.058;10.632;2023-02-18T00:24:03;95635.72;;;9.93;83.64
56330;BME280;42236;48.058;10.632;2023-02-18T00:26:50;95614.81;;;9.90;84.45
56330;BME280;42236;48.058;10.632;2023-02-18T00:29:36;95622.41;;;9.88;84.20
56330;BME280;42236;48.058;10.632;2023-02-18T00:32:22;95601.31;;;9.90;84.29
56330;BME280;42236;48.058;10.632;2023-02-18T00:35:08;95607.19;;;9.92;83.85
56330;BME280;42236;48.058;10.632;2023-02-18T00:37:53;95602.94;;;9.91;83.72
56330;BME280;42236;48.058;10.632;2023-02-18T00:40:40;95611.63;;;9.88;83.97
56330;BME280;42236;48.058;10.632;2023-02-18T00:43:26;95614.31;;;9.88;83.62
56330;BME280;42236;48.058;10.632;2023-02-18T00:46:12;95607.16;;;9.83;83.75
56330;BME280;42236;48.058;10.632;2023-02-18T00:48:58;95602.69;;;9.78;83.83
56330;BME280;42236;48.058;10.632;2023-02-18T00:51:43;95603.31;;;9.75;83.85
56330;BME280;42236;48.058;10.632;2023-02-18T00:54:29;95598.38;;;9.69;83.85
56330;BME280;42236;48.058;10.632;2023-02-18T00:57:15;95607.72;;;9.63;84.18
56330;BME280;42236;48.058;10.632;2023-02-18T01:00:01;95605.16;;;9.57;84.13
56330;BME280;42236;48.058;10.632;2023-02-18T01:02:47;95612.25;;;9.53;84.38
56330;BME280;42236;48.058;10.632;2023-02-18T01:05:33;95617.50;;;9.50;84.41
56330;BME280;42236;48.058;10.632;2023-02-18T01:08:20;95622.88;;;9.50;84.51
56330;BME280;42236;48.058;10.632;2023-02-18T01:11:08;95615.88;;;9.49;84.81
56330;BME280;42236;48.058;10.632;2023-02-18T01:13:54;95602.28;;;9.54;84.45
56330;BME280;42236;48.058;10.632;2023-02-18T01:16:40;95603.69;;;9.51;84.56
56330;BME280;42236;48.058;10.632;2023-02-18T01:19:25;95599.72;;;9.49;84.97
56330;BME280;42236;48.058;10.632;2023-02-18T01:22:11;95598.75;;;9.45;84.81
56330;BME280;42236;48.058;10.632;2023-02-18T01:24:57;95604.75;;;9.42;85.28
56330;BME280;42236;48.058;10.632;2023-02-18T01:27:43;95591.41;;;9.36;85.70
56330;BME280;42236;48.058;10.632;2023-02-18T01:30:29;95587.28;;;9.30;86.19
56330;BME280;42236;48.058;10.632;2023-02-18T01:33:14;95588.06;;;9.31;86.20
56330;BME280;42236;48.058;10.632;2023-02-18T01:36:00;95590.44;;;9.32;85.73
56330;BME280;42236;48.058;10.632;2023-02-18T01:38:46;95602.94;;;9.28;86.58
56330;BME280;42236;48.058;10.632;2023-02-18T01:41:32;95588.50;;;9.24;86.91
56330;BME280;42236;48.058;10.632;2023-02-18T01:44:22;95598.16;;;9.25;87.33
56330;BME280;42236;48.058;10.632;2023-02-18T01:47:08;95600.25;;;9.28;87.05
56330;BME280;42236;48.058;10.632;2023-02-18T01:49:53;95591.06;;;9.29;86.84
56330;BME280;42236;48.058;10.632;2023-02-18T01:52:39;95596.44;;;9.29;86.96
56330;BME280;42236;48.058;10.632;2023-02-18T01:55:25;95586.31;;;9.26;87.15
56330;BME280;42236;48.058;10.632;2023-02-18T01:58:11;95589.00;;;9.26;87.25
56330;BME280;42236;48.058;10.632;2023-02-18T02:00:57;95585.50;;;9.26;87.45
56330;BME280;42236;48.058;10.632;2023-02-18T02:03:43;95579.50;;;9.29;87.67
56330;BME280;42236;48.058;10.632;2023-02-18T02:06:28;95582.50;;;9.27;87.73
56330;BME280;42236;48.058;10.632;2023-02-18T02:09:16;95586.31;;;9.26;88.06
56330;BME280;42236;48.058;10.632;2023-02-18T02:15:25;95571.38;;;9.20;88.73
56330;BME280;42236;48.058;10.632;2023-02-18T02:18:23;95571.50;;;9.15;89.14
56330;BME280;42236;48.058;10.632;2023-02-18T02:21:38;95570.41;;;9.16;89.68
56330;BME280;42236;48.058;10.632;2023-02-18T02:42:46;95570.06;;;9.09;90.87
56330;BME280;42236;48.058;10.632;2023-02-18T02:48:48;95568.94;;;9.10;91.78
56330;BME280;42236;48.058;10.632;2023-02-18T02:51:58;95571.63;;;9.10;91.74
56330;BME280;42236;48.058;10.632;2023-02-18T02:54:46;95558.66;;;9.12;90.77
56330;BME280;42236;48.058;10.632;2023-02-18T03:00:37;95557.56;;;9.13;92.11
56330;BME280;42236;48.058;10.632;2023-02-18T03:06:59;95561.84;;;9.14;92.69
56330;BME280;42236;48.058;10.632;2023-02-18T03:12:46;95568.09;;;9.23;91.49
56330;BME280;42236;48.058;10.632;2023-02-18T03:15:55;95558.88;;;9.24;92.17
56330;BME280;42236;48.058;10.632;2023-02-18T03:18:50;95553.50;;;9.24;91.42
56330;BME280;42236;48.058;10.632;2023-02-18T03:21:43;95554.00;;;9.26;90.94
56330;BME280;42236;48.058;10.632;2023-02-18T03:24:32;95536.72;;;9.27;91.19
56330;BME280;42236;48.058;10.632;2023-02-18T03:27:48;95546.41;;;9.28;91.98
56330;BME280;42236;48.058;10.632;2023-02-18T03:30:41;95541.63;;;9.25;91.49
56330;BME280;42236;48.058;10.632;2023-02-18T03:33:32;95531.66;;;9.26;91.75
56330;BME280;42236;48.058;10.632;2023-02-18T03:36:20;95539.13;;;9.29;91.14
56330;BME280;42236;48.058;10.632;2023-02-18T03:39:18;95544.00;;;9.27;91.81
56330;BME280;42236;48.058;10.632;2023-02-18T03:42:04;95551.78;;;9.28;90.94
56330;BME280;42236;48.058;10.632;2023-02-18T03:44:50;95544.22;;;9.30;90.91
56330;BME280;42236;48.058;10.632;2023-02-18T03:47:35;95542.59;;;9.29;90.92
56330;BME280;42236;48.058;10.632;2023-02-18T03:50:21;95540.69;;;9.30;91.11
56330;BME280;42236;48.058;10.632;2023-02-18T03:53:07;95541.81;;;9.29;91.05
56330;BME280;42236;48.058;10.632;2023-02-18T03:55:52;95551.16;;;9.31;91.15
56330;BME280;42236;48.058;10.632;2023-02-18T03:58:38;95547.34;;;9.32;90.89
56330;BME280;42236;48.058;10.632;2023-02-18T04:01:24;95545.78;;;9.31;90.96
56330;BME280;42236;48.058;10.632;2023-02-18T04:04:09;95555.44;;;9.32;91.06
56330;BME280;42236;48.058;10.632;2023-02-18T04:06:55;95530.25;;;9.28;91.65
56330;BME280;42236;48.058;10.632;2023-02-18T04:09:41;95532.81;;;9.33;91.14
56330;BME280;42236;48.058;10.632;2023-02-18T04:12:26;95537.06;;;9.34;90.98
56330;BME280;42236;48.058;10.632;2023-02-18T04:15:12;95530.13;;;9.33;90.73
56330;BME280;42236;48.058;10.632;2023-02-18T04:17:58;95536.00;;;9.35;90.35
56330;BME280;42236;48.058;10.632;2023-02-18T04:20:44;95546.75;;;9.35;90.29
56330;BME280;42236;48.058;10.632;2023-02-18T04:23:30;95543.56;;;9.33;90.46
56330;BME280;42236;48.058;10.632;2023-02-18T04:26:16;95538.69;;;9.35;89.95
56330;BME280;42236;48.058;10.632;2023-02-18T04:29:02;95539.47;;;9.36;89.88
56330;BME280;42236;48.058;10.632;2023-02-18T04:31:47;95544.06;;;9.35;89.87
56330;BME280;42236;48.058;10.632;2023-02-18T04:34:33;95545.00;;;9.39;89.49
56330;BME280;42236;48.058;10.632;2023-02-18T04:37:19;95547.09;;;9.43;89.40
56330;BME280;42236;48.058;10.632;2023-02-18T04:40:05;95543.31;;;9.44;89.26
56330;BME280;42236;48.058;10.632;2023-02-18T04:42:51;95541.09;;;9.46;89.10
56330;BME280;42236;48.058;10.632;2023-02-18T04:45:36;95530.31;;;9.46;88.97
56330;BME280;42236;48.058;10.632;2023-02-18T04:48:22;95535.53;;;9.42;89.12
56330;BME280;42236;48.058;10.632;2023-02-18T04:51:08;95543.59;;;9.42;89.15
56330;BME280;42236;48.058;10.632;2023-02-18T04:53:53;95546.63;;;9.40;89.17
56330;BME280;42236;48.058;10.632;2023-02-18T04:56:39;95540.13;;;9.42;88.92
56330;BME280;42236;48.058;10.632;2023-02-18T04:59:25;95541.25;;;9.40;88.88
56330;BME280;42236;48.058;10.632;2023-02-18T05:02:11;95532.97;;;9.37;88.95
56330;BME280;42236;48.058;10.632;2023-02-18T05:04:56;95543.13;;;9.40;88.57
56330;BME280;42236;48.058;10.632;2023-02-18T05:07:42;95544.72;;;9.41;88.42
56330;BME280;42236;48.058;10.632;2023-02-18T05:10:28;95535.84;;;9.40;88.42
56330;BME280;42236;48.058;10.632;2023-02-18T05:13:13;95540.13;;;9.42;88.30
56330;BME280;42236;48.058;10.632;2023-02-18T05:15:59;95536.16;;;9.39;88.33
56330;BME280;42236;48.058;10.632;2023-02-18T05:18:45;95544.88;;;9.45;88.29
56330;BME280;42236;48.058;10.632;2023-02-18T05:21:31;95539.50;;;9.45;88.23
56330;BME280;42236;48.058;10.632;2023-02-18T05:24:16;95540.31;;;9.45;88.12
56330;BME280;42236;48.058;10.632;2023-02-18T05:27:02;95529.84;;;9.44;88.04
56330;BME280;42236;48.058;10.632;2023-02-18T05:29:48;95540.59;;;9.44;88.14
56330;BME280;42236;48.058;10.632;2023-02-18T05:32:33;95536.16;;;9.39;88.27
56330;BME280;42236;48.058;10.632;2023-02-18T05:35:19;95532.38;;;9.40;88.01
56330;BME280;42236;48.058;10.632;2023-02-18T05:38:05;95528.06;;;9.39;87.81
56330;BME280;42236;48.058;10.632;2023-02-18T05:40:50;95543.94;;;9.40;87.89
56330;BME280;42236;48.058;10.632;2023-02-18T05:43:36;95529.78;;;9.35;88.23
56330;BME280;42236;48.058;10.632;2023-02-18T05:46:42;95538.84;;;9.39;87.69
56330;BME280;42236;48.058;10.632;2023-02-18T05:49:29;95534.88;;;9.36;88.01
56330;BME280;42236;48.058;10.632;2023-02-18T05:52:16;95540.75;;;9.38;87.67
56330;BME280;42236;48.058;10.632;2023-02-18T05:55:02;95536.94;;;9.39;87.79
56330;BME280;42236;48.058;10.632;2023-02-18T05:57:48;95531.88;;;9.38;87.71
56330;BME280;42236;48.058;10.632;2023-02-18T06:00:33;95539.16;;;9.37;87.54
56330;BME280;42236;48.058;10.632;2023-02-18T06:03:19;95538.84;;;9.39;87.24
56330;BME280;42236;48.058;10.632;2023-02-18T06:06:05;95532.19;;;9.36;87.82
56330;BME280;42236;48.058;10.632;2023-02-18T06:08:51;95533.16;;;9.40;87.56
56330;BME280;42236;48.058;10.632;2023-02-18T06:11:36;95524.09;;;9.36;87.93
56330;BME280;42236;48.058;10.632;2023-02-18T06:14:22;95538.34;;;9.37;87.74
56330;BME280;42236;48.058;10.632;2023-02-18T06:17:10;95539.16;;;9.37;87.98
56330;BME280;42236;48.058;10.632;2023-02-18T06:19:56;95536.94;;;9.39;87.69
56330;BME280;42236;48.058;10.632;2023-02-18T06:22:42;95530.59;;;9.35;87.88
56330;BME280;42236;48.058;10.632;2023-02-18T06:25:28;95539.31;;;9.41;87.58
56330;BME280;42236;48.058;10.632;2023-02-18T06:28:13;95535.38;;;9.38;87.71
56330;BME280;42236;48.058;10.632;2023-02-18T06:30:59;95526.97;;;9.40;87.83
56330;BME280;42236;48.058;10.632;2023-02-18T06:33:45;95534.72;;;9.42;87.57
56330;BME280;42236;48.058;10.632;2023-02-18T06:36:30;95537.25;;;9.38;87.64
56330;BME280;42236;48.058;10.632;2023-02-18T06:39:16;95523.00;;;9.37;87.70
56330;BME280;42236;48.058;10.632;2023-02-18T06:42:01;95529.97;;;9.38;87.72
56330;BME280;42236;48.058;10.632;2023-02-18T06:44:47;95523.81;;;9.38;87.65
56330;BME280;42236;48.058;10.632;2023-02-18T06:47:33;95540.75;;;9.38;87.71
56330;BME280;42236;48.058;10.632;2023-02-18T06:50:19;95533.16;;;9.40;87.49
56330;BME280;42236;48.058;10.632;2023-02-18T06:53:04;95535.84;;;9.40;87.48
56330;BME280;42236;48.058;10.632;2023-02-18T06:55:50;95533.47;;;9.39;88.00
56330;BME280;42236;48.058;10.632;2023-02-18T06:58:36;95534.56;;;9.38;87.76
56330;BME280;42236;48.058;10.632;2023-02-18T07:01:22;95542.31;;;9.39;87.62
56330;BME280;42236;48.058;10.632;2023-02-18T07:04:07;95542.31;;;9.39;87.55
56330;BME280;42236;48.058;10.632;2023-02-18T07:06:53;95545.84;;;9.40;87.59
56330;BME280;42236;48.058;10.632;2023-02-18T07:09:39;95538.06;;;9.38;87.53
56330;BME280;42236;48.058;10.632;2023-02-18T07:12:24;95536.94;;;9.39;87.39
56330;BME280;42236;48.058;10.632;2023-02-18T07:15:10;95543.13;;;9.40;87.53
56330;BME280;42236;48.058;10.632;2023-02-18T07:17:56;95528.56;;;9.41;87.47
56330;BME280;42236;48.058;10.632;2023-02-18T07:20:41;95527.94;;;9.44;87.44
56330;BME280;42236;48.058;10.632;2023-02-18T07:23:27;95535.72;;;9.46;87.39
56330;BME280;42236;48.058;10.632;2023-02-18T07:26:13;95531.41;;;9.45;87.49
56330;BME280;42236;48.058;10.632;2023-02-18T07:28:59;95532.72;;;9.47;87.21
56330;BME280;42236;48.058;10.632;2023-02-18T07:31:44;95526.69;;;9.50;86.99
56330;BME280;42236;48.058;10.632;2023-02-18T07:34:30;95524.31;;;9.49;86.96
56330;BME280;42236;48.058;10.632;2023-02-18T07:37:16;95533.38;;;9.53;86.96
56330;BME280;42236;48.058;10.632;2023-02-18T07:40:01;95529.25;;;9.55;86.76
56330;BME280;42236;48.058;10.632;2023-02-18T07:42:48;95525.63;;;9.60;86.79
56330;BME280;42236;48.058;10.632;2023-02-18T07:45:34;95526.25;;;9.66;86.60
56330;BME280;42236;48.058;10.632;2023-02-18T07:48:19;95532.94;;;9.68;86.30
56330;BME280;42236;48.058;10.632;2023-02-18T07:51:07;95529.16;;;9.69;86.36
56330;BME280;42236;48.058;10.632;2023-02-18T07:53:53;95518.03;;;9.71;86.27
56330;BME280;42236;48.058;10.632;2023-02-18T07:56:39;95500.94;;;9.75;86.09
56330;BME280;42236;48.058;10.632;2023-02-18T07:59:25;95520.59;;;9.76;85.72
56330;BME280;42236;48.058;10.632;2023-02-18T08:02:19;95510.47;;;9.81;85.19
56330;BME280;42236;48.058;10.632;2023-02-18T08:05:05;95505.88;;;9.82;85.02
56330;BME280;42236;48.058;10.632;2023-02-18T08:07:50;95501.59;;;9.90;84.86
56330;BME280;42236;48.058;10.632;2023-02-18T08:10:36;95514.94;;;9.95;84.66
56330;BME280;42236;48.058;10.632;2023-02-18T08:13:22;95505.13;;;9.99;84.67
56330;BME280;42236;48.058;10.632;2023-02-18T08:16:08;95502.91;;;10.01;84.34
56330;BME280;42236;48.058;10.632;2023-02-18T08:18:55;95502.91;;;10.01;84.55
56330;BME280;42236;48.058;10.632;2023-02-18T08:21:41;95509.06;;;10.01;84.02
56330;BME280;42236;48.058;10.632;2023-02-18T08:24:26;95511.63;;;10.07;84.14
56330;BME280;42236;48.058;10.632;2023-02-18T08:27:12;95509.88;;;10.02;84.08
56330;BME280;42236;48.058;10.632;2023-02-18T08:29:59;95503.53;;;10.07;84.05
56330;BME280;42236;48.058;10.632;2023-02-18T08:32:44;95510.19;;;10.09;83.69
56330;BME280;42236;48.058;10.632;2023-02-18T08:35:30;95502.59;;;10.11;83.16
56330;BME280;42236;48.058;10.632;2023-02-18T08:38:15;95493.38;;;10.12;83.16
56330;BME280;42236;48.058;10.632;2023-02-18T08:41:03;95495.78;;;10.14;83.05
56330;BME280;42236;48.058;10.632;2023-02-18T08:43:49;95494.69;;;10.15;82.66
56330;BME280;42236;48.058;10.632;2023-02-18T08:46:34;95490.88;;;10.24;82.63
56330;BME280;42236;48.058;10.632;2023-02-18T08:49:20;95485.19;;;10.35;82.37
56330;BME280;42236;48.058;10.632;2023-02-18T08:52:08;95476.63;;;10.33;81.83
56330;BME280;42236;48.058;10.632;2023-02-18T08:54:54;95477.84;;;10.26;81.68
56330;BME280;42236;48.058;10.632;2023-02-18T08:57:39;95485.97;;;10.35;82.00
56330;BME280;42236;48.058;10.632;2023-02-18T09:00:25;95486.75;;;10.36;81.71
56330;BME280;42236;48.058;10.632;2023-02-18T09:03:12;95476.44;;;10.38;81.37
56330;BME280;42236;48.058;10.632;2023-02-18T09:05:59;95478.84;;;10.39;81.34
56330;BME280;42236;48.058;10.632;2023-02-18T09:08:44;95482.97;;;10.37;81.25
56330;BME280;42236;48.058;10.632;2023-02-18T09:11:30;95487.41;;;10.33;81.57
56330;BME280;42236;48.058;10.632;2023-02-18T09:14:16;95495.81;;;10.31;81.01
56330;BME280;42236;48.058;10.632;2023-02-18T09:17:01;95480.88;;;10.34;80.86
56330;BME280;42236;48.058;10.632;2023-02-18T09:19:47;95481.19;;;10.41;80.61
56330;BME280;42236;48.058;10.632;2023-02-18T09:22:33;95485.97;;;10.44;80.56
56330;BME280;42236;48.058;10.632;2023-02-18T09:25:18;95488.34;;;10.45;80.00
56330;BME280;42236;48.058;10.632;2023-02-18T09:28:04;95483.13;;;10.49;80.02
56330;BME280;42236;48.058;10.632;2023-02-18T09:30:50;95481.34;;;10.53;79.71
56330;BME280;42236;48.058;10.632;2023-02-18T09:33:40;95472.16;;;10.54;79.50
56330;BME280;42236;48.058;10.632;2023-02-18T09:36:27;95476.75;;;10.62;79.47
56330;BME280;42236;48.058;10.632;2023-02-18T09:39:13;95460.38;;;10.67;78.93
56330;BME280;42236;48.058;10.632;2023-02-18T09:42:01;95431.97;;;10.70;78.78
56330;BME280;42236;48.058;10.632;2023-02-18T09:44:53;95438.97;;;10.71;78.45
56330;BME280;42236;48.058;10.632;2023-02-18T09:47:42;95448.97;;;10.71;77.98
56330;BME280;42236;48.058;10.632;2023-02-18T09:50:31;95454.97;;;10.85;78.17
56330;BME280;42236;48.058;10.632;2023-02-18T09:53:18;95442.56;;;10.84;77.92
56330;BME280;42236;48.058;10.632;2023-02-18T09:56:05;95445.91;;;10.81;77.71
56330;BME280;42236;48.058;10.632;2023-02-18T09:58:52;95449.56;;;10.85;77.99
56330;BME280;42236;48.058;10.632;2023-02-18T10:01:39;95430.97;;;10.92;77.62
56330;BME280;42236;48.058;10.632;2023-02-18T10:04:36;95437.13;;;11.01;77.04
56330;BME280;42236;48.058;10.632;2023-02-18T10:07:30;95426.75;;;11.12;76.95
56330;BME280;42236;48.058;10.632;2023-02-18T10:13:23;95436.88;;;11.24;75.88
56330;BME280;42236;48.058;10.632;2023-02-18T10:16:14;95428.69;;;11.41;75.46
56330;BME280;42236;48.058;10.632;2023-02-18T10:22:07;95420.75;;;11.66;75.03
56330;BME280;42236;48.058;10.632;2023-02-18T10:24:59;95415.81;;;11.68;73.36
56330;BME280;42236;48.058;10.632;2023-02-18T10:27:48;95400.00;;;11.58;73.56
56330;BME280;42236;48.058;10.632;2023-02-18T10:30:40;95407.34;;;11.48;72.85
56330;BME280;42236;48.058;10.632;2023-02-18T10:33:32;95407.75;;;11.38;73.08
56330;BME280;42236;48.058;10.632;2023-02-18T10:36:23;95401.16;;;11.48;73.37
56330;BME280;42236;48.058;10.632;2023-02-18T10:48:46;95365.13;;;11.65;71.70
56330;BME280;42236;48.058;10.632;2023-02-18T10:51:39;95358.19;;;11.76;72.40
56330;BME280;42236;48.058;10.632;2023-02-18T10:57:48;95355.13;;;11.86;71.65
56330;BME280;42236;48.058;10.632;2023-02-18T11:00:38;95364.03;;;11.87;71.44
56330;BME280;42236;48.058;10.632;2023-02-18T11:03:45;95354.38;;;11.77;70.60
56330;BME280;42236;48.058;10.632;2023-02-18T11:06:38;95352.59;;;11.81;70.99
56330;BME280;42236;48.058;10.632;2023-02-18T11:09:39;95339.06;;;11.81;70.61
56330;BME280;42236;48.058;10.632;2023-02-18T11:12:43;95333.56;;;11.99;70.08
56330;BME280;42236;48.058;10.632;2023-02-18T11:15:30;95321.91;;;12.19;70.47
56330;BME280;42236;48.058;10.632;2023-02-18T11:24:14;95343.75;;;12.47;67.62
56330;BME280;42236;48.058;10.632;2023-02-18T11:27:00;95324.91;;;12.51;68.31
56330;BME280;42236;48.058;10.632;2023-02-18T11:29:49;95319.41;;;12.47;67.60
56330;BME280;42236;48.058;10.632;2023-02-18T11:32:37;95324.06;;;12.59;68.02
56330;BME280;42236;48.058;10.632;2023-02-18T11:35:26;95321.34;;;12.71;67.57
56330;BME280;42236;48.058;10.632;2023-02-18T11:41:15;95306.75;;;12.51;66.18
56330;BME280;42236;48.058;10.632;2023-02-18T11:44:05;95313.84;;;12.44;66.86
56330;BME280;42236;48.058;10.632;2023-02-18T11:47:04;95295.59;;;12.41;65.72
56330;BME280;42236;48.058;10.632;2023-02-18T11:50:20;95303.72;;;12.53;66.63
56330;BME280;42236;48.058;10.632;2023-02-18T11:53:32;95295.94;;;12.51;67.54
56330;BME280;42236;48.058;10.632;2023-02-18T11:56:18;95306.44;;;12.65;67.70
56330;BME280;42236;48.058;10.632;2023-02-18T11:59:09;95300.81;;;12.70;66.54
56330;BME280;42236;48.058;10.632;2023-02-18T12:05:17;95307.38;;;12.69;66.87
56330;BME280;42236;48.058;10.632;2023-02-18T12:08:27;95300.47;;;12.72;65.98
56330;BME280;42236;48.058;10.632;2023-02-18T12:11:23;95303.75;;;12.77;65.67
56330;BME280;42236;48.058;10.632;2023-02-18T12:14:19;95282.22;;;12.69;65.73
56330;BME280;42236;48.058;10.632;2023-02-18T12:23:32;95291.13;;;12.69;67.35
56330;BME280;42236;48.058;10.632;2023-02-18T12:30:05;95281.63;;;12.63;66.38
56330;BME280;42236;48.058;10.632;2023-02-18T12:42:26;95253.31;;;12.48;66.25
56330;BME280;42236;48.058;10.632;2023-02-18T12:48:25;95266.41;;;12.71;66.42
56330;BME280;42236;48.058;10.632;2023-02-18T12:51:39;95262.81;;;12.79;67.03
56330;BME280;42236;48.058;10.632;2023-02-18T12:57:35;95269.09;;;12.71;65.76
56330;BME280;42236;48.058;10.632;2023-02-18T13:00:55;95266.31;;;12.67;66.15
56330;BME280;42236;48.058;10.632;2023-02-18T13:04:11;95256.25;;;12.68;65.52
56330;BME280;42236;48.058;10.632;2023-02-18T13:07:07;95269.69;;;12.64;65.62
56330;BME280;42236;48.058;10.632;2023-02-18T13:12:54;95229.88;;;12.40;65.69
56330;BME280;42236;48.058;10.632;2023-02-18T13:15:46;95240.47;;;12.33;67.04
56330;BME280;42236;48.058;10.632;2023-02-18T13:18:44;95246.53;;;12.30;67.13
56330;BME280;42236;48.058;10.632;2023-02-18T13:21:32;95237.28;;;12.31;66.42
56330;BME280;42236;48.058;10.632;2023-02-18T13:27:44;95242.84;;;12.47;66.97
56330;BME280;42236;48.058;10.632;2023-02-18T13:30:40;95242.16;;;12.37;66.40
56330;BME280;42236;48.058;10.632;2023-02-18T13:33:38;95247.44;;;12.34;66.66
56330;BME280;42236;48.058;10.632;2023-02-18T13:36:38;95236.06;;;12.28;66.45
56330;BME280;42236;48.058;10.632;2023-02-18T13:39:25;95250.72;;;12.40;66.92
56330;BME280;42236;48.058;10.632;2023-02-18T13:45:06;95236.97;;;12.57;66.86
56330;BME280;42236;48.058;10.632;2023-02-18T13:47:53;95240.78;;;12.68;67.06
56330;BME280;42236;48.058;10.632;2023-02-18T13:50:41;95234.28;;;12.69;66.23
56330;BME280;42236;48.058;10.632;2023-02-18T13:53:29;95227.84;;;12.74;66.48
56330;BME280;42236;48.058;10.632;2023-02-18T13:59:09;95233.72;;;12.64;67.56
56330;BME280;42236;48.058;10.632;2023-02-18T14:08:10;95230.19;;;12.51;67.05
56330;BME280;42236;48.058;10.632;2023-02-18T14:11:23;95210.78;;;12.36;67.49
56330;BME280;42236;48.058;10.632;2023-02-18T14:14:32;95226.38;;;12.40;67.71
56330;BME280;42236;48.058;10.632;2023-02-18T14:22:51;95218.34;;;12.43;66.38
56330;BME280;42236;48.058;10.632;2023-02-18T14:25:39;95225.94;;;12.62;65.58
56330;BME280;42236;48.058;10.632;2023-02-18T14:41:06;95219.13;;;12.68;63.74
56330;BME280;42236;48.058;10.632;2023-02-18T14:50:14;95232.25;;;12.78;61.39
56330;BME280;42236;48.058;10.632;2023-02-18T14:53:06;95230.78;;;12.69;61.56
56330;BME280;42236;48.058;10.632;2023-02-18T14:55:57;95234.72;;;12.71;61.80
56330;BME280;42236;48.058;10.632;2023-02-18T14:58:46;95237.66;;;12.66;61.81
56330;BME280;42236;48.058;10.632;2023-02-18T15:01:34;95246.78;;;12.62;62.51
56330;BME280;42236;48.058;10.632;2023-02-18T15:04:20;95236.53;;;12.55;62.86
56330;BME280;42236;48.058;10.632;2023-02-18T15:07:08;95240.00;;;12.43;63.32
56330;BME280;42236;48.058;10.632;2023-02-18T15:09:54;95227.03;;;12.36;63.51
56330;BME280;42236;48.058;10.632;2023-02-18T15:12:40;95229.63;;;12.33;63.69
56330;BME280;42236;48.058;10.632;2023-02-18T15:15:26;95232.22;;;12.29;64.01
56330;BME280;42236;48.058;10.632;2023-02-18T15:18:21;95230.72;;;12.20;64.27
56330;BME280;42236;48.058;10.632;2023-02-18T15:21:20;95218.44;;;12.10;64.58
56330;BME280;42236;48.058;10.632;2023-02-18T15:24:29;95222.50;;;12.16;65.16
56330;BME280;42236;48.058;10.632;2023-02-18T15:27:18;95217.09;;;12.16;65.45
56330;BME280;42236;48.058;10.632;2023-02-18T15:30:20;95214.84;;;12.06;65.91
56330;BME280;42236;48.058;10.632;2023-02-18T15:33:10;95205.00;;;11.89;66.36
56330;BME280;42236;48.058;10.632;2023-02-18T15:36:05;95205.31;;;11.87;66.72
56330;BME280;42236;48.058;10.632;2023-02-18T15:38:51;95206.66;;;11.93;66.71
56330;BME280;42236;48.058;10.632;2023-02-18T15:41:38;95212.16;;;11.85;66.98
56330;BME280;42236;48.058;10.632;2023-02-18T15:44:28;95215.41;;;11.78;67.12
56330;BME280;42236;48.058;10.632;2023-02-18T15:47:15;95196.69;;;11.73;67.24
56330;BME280;42236;48.058;10.632;2023-02-18T15:50:02;95223.16;;;11.67;67.62
56330;BME280;42236;48.058;10.632;2023-02-18T15:52:49;95215.56;;;11.61;67.23
56330;BME280;42236;48.058;10.632;2023-02-18T15:55:38;95206.22;;;11.58;67.50
56330;BME280;42236;48.058;10.632;2023-02-18T15:58:30;95200.41;;;11.47;67.73
56330;BME280;42236;48.058;10.632;2023-02-18T16:01:28;95205.56;;;11.40;68.05
56330;BME280;42236;48.058;10.632;2023-02-18T16:04:14;95208.94;;;11.37;68.19
56330;BME280;42236;48.058;10.632;2023-02-18T16:07:03;95199.00;;;11.29;68.41
56330;BME280;42236;48.058;10.632;2023-02-18T16:10:13;95200.66;;;11.21;68.36
56330;BME280;42236;48.058;10.632;2023-02-18T16:12:59;95198.28;;;11.20;68.54
56330;BME280;42236;48.058;10.632;2023-02-18T16:15:48;95206.38;;;11.20;68.77
56330;BME280;42236;48.058;10.632;2023-02-18T16:18:39;95210.75;;;11.12;69.28
56330;BME280;42236;48.058;10.632;2023-02-18T16:21:32;95220.03;;;11.02;69.47
56330;BME280;42236;48.058;10.632;2023-02-18T16:24:29;95215.59;;;10.98;69.59
56330;BME280;42236;48.058;10.632;2023-02-18T16:27:17;95210.53;;;10.96;69.77
56330;BME280;42236;48.058;10.632;2023-02-18T16:33:01;95211.66;;;10.95;69.84
56330;BME280;42236;48.058;10.632;2023-02-18T16:35:46;95204.38;;;10.87;70.23
56330;BME280;42236;48.058;10.632;2023-02-18T16:38:32;95207.28;;;10.82;70.55
56330;BME280;42236;48.058;10.632;2023-02-18T16:41:18;95207.47;;;10.77;70.52
56330;BME280;42236;48.058;10.632;2023-02-18T16:44:12;95216.22;;;10.74;70.66
56330;BME280;42236;48.058;10.632;2023-02-18T16:46:58;95206.22;;;10.74;70.55
56330;BME280;42236;48.058;10.632;2023-02-18T16:49:45;95212.59;;;10.70;70.59
56330;BME280;42236;48.058;10.632;2023-02-18T16:52:31;95212.78;;;10.64;70.81
56330;BME280;42236;48.058;10.632;2023-02-18T16:55:23;95205.34;;;10.61;70.84
56330;BME280;42236;48.058;10.632;2023-02-18T16:58:08;95221.06;;;10.59;70.61
56330;BME280;42236;48.058;10.632;2023-02-18T17:00:54;95213.44;;;10.61;70.68
56330;BME280;42236;48.058;10.632;2023-02-18T17:03:40;95211.72;;;10.57;70.26
56330;BME280;42236;48.058;10.632;2023-02-18T17:06:26;95219.34;;;10.55;70.54